Airfield :
LOGIN :

Register | Disclaimer

   EN    FR    IT 

 










Legend :    VFR   Marginal VFR   IFR   Intensive IFR   Very Intensive IFR
Visi :
Ceiling :
>= 8 km
>= 3000ft
5 to 8 km
1000 to 3000 ft
1500m to 5 km
500 to 1000 ft
800 to 1500m
200 to 500 ft
< 800m
< 200 ft
Symbols :   Thunderstorms  Fog  Heavy snow  Heavy precipitations  Wind > 20 kt
SIGMETs :     Misc.  Thunderstorms  Icing  Turbulence  Mountain Waves  Volcanic Ashes






- Airport Elevation : 322 ft


LHSN - Szolnok

CURRENT METAR :
  • 021215Z 05004KT 8000 -RASN FEW010 SCT035 OVC050 03/01 Q1023 NOSIG RMK BLU

EXPIRED METARs :
  • 021145Z 06004KT 8000 -RASN SCT010 OVC047 03/01 Q1023 NOSIG RMK BLU
  • 021115Z 07004KT 020V100 9999 -RA FEW011 OVC060 03/01 Q1023 NOSIG RMK BLU
  • 021103Z 07006KT 030V100 9999 -RA FEW011 OVC060 03/01 Q1023 RMK BLU
  • 021045Z 09004KT 060V130 9999 SCT033 OVC050 03/00 Q1023 NOSIG RMK BLU
  • 021015Z 06004KT 040V100 9999 SCT033 OVC050 02/00 Q1023 NOSIG RMK BLU
  • 020945Z 06006KT 9999 BKN046 02/00 Q1023 NOSIG RMK BLU

TAF TAF LHSN
Valid from the 02 at 12:00 until the 02 at 21:00 UTC


021115Z 0212/0221 05005KT 9999 FEW010 OVC050
BECMG 0212/0214 9999 SCT015 BKN030
TEMPO 0212/0218 6000 -RA -SNRA SCT010 OVC025
BECMG 0218/0220 5000 BR NSC



MET'MAP, your aeronautical weather chart ! - Copyright ORBIFLY December 2007 - Disclaimer

ORBIFLY MET'MAP TEAM :

Programming & Development : Alexandra Zaïnal
Original concept : Baudouin d'Aumeries
Technical & hardware support : Manuel Goepfert
Assistance : Marc-Olivier Méhu




SOURCES & CREDITS :

   NOAA